sensor_id;sensor_type;location;lat;lon;timestamp;P1;durP1;ratioP1;P2;durP2;ratioP2
41923;SDS011;27613;48.116;11.656;2024-02-26T00:01:27;4.63;;;2.67;;
41923;SDS011;27613;48.116;11.656;2024-02-26T00:03:53;4.93;;;3.00;;
41923;SDS011;27613;48.116;11.656;2024-02-26T00:06:20;5.95;;;2.88;;
41923;SDS011;27613;48.116;11.656;2024-02-26T00:08:46;3.78;;;2.67;;
41923;SDS011;27613;48.116;11.656;2024-02-26T00:11:11;5.05;;;3.08;;
41923;SDS011;27613;48.116;11.656;2024-02-26T00:13:37;5.65;;;2.70;;
41923;SDS011;27613;48.116;11.656;2024-02-26T00:16:03;4.72;;;3.00;;
41923;SDS011;27613;48.116;11.656;2024-02-26T00:18:29;4.22;;;2.67;;
41923;SDS011;27613;48.116;11.656;2024-02-26T00:20:54;4.07;;;2.60;;
41923;SDS011;27613;48.116;11.656;2024-02-26T00:23:20;5.13;;;2.58;;
41923;SDS011;27613;48.116;11.656;2024-02-26T00:25:46;6.03;;;2.97;;
41923;SDS011;27613;48.116;11.656;2024-02-26T00:28:11;4.72;;;2.55;;
41923;SDS011;27613;48.116;11.656;2024-02-26T00:30:38;4.82;;;3.00;;
41923;SDS011;27613;48.116;11.656;2024-02-26T00:33:04;5.22;;;2.83;;
41923;SDS011;27613;48.116;11.656;2024-02-26T00:35:29;4.80;;;2.55;;
41923;SDS011;27613;48.116;11.656;2024-02-26T00:37:55;8.57;;;2.78;;
41923;SDS011;27613;48.116;11.656;2024-02-26T00:40:20;5.95;;;2.92;;
41923;SDS011;27613;48.116;11.656;2024-02-26T00:42:46;5.63;;;3.00;;
41923;SDS011;27613;48.116;11.656;2024-02-26T00:45:12;6.80;;;2.90;;
41923;SDS011;27613;48.116;11.656;2024-02-26T00:47:38;3.42;;;2.28;;
41923;SDS011;27613;48.116;11.656;2024-02-26T00:50:06;7.38;;;2.85;;
41923;SDS011;27613;48.116;11.656;2024-02-26T00:52:33;4.60;;;2.58;;
41923;SDS011;27613;48.116;11.656;2024-02-26T00:54:58;4.90;;;3.13;;
41923;SDS011;27613;48.116;11.656;2024-02-26T00:57:24;5.35;;;2.70;;
41923;SDS011;27613;48.116;11.656;2024-02-26T00:59:50;4.97;;;3.03;;
41923;SDS011;27613;48.116;11.656;2024-02-26T01:02:15;5.18;;;2.80;;
41923;SDS011;27613;48.116;11.656;2024-02-26T01:04:41;3.58;;;2.38;;
41923;SDS011;27613;48.116;11.656;2024-02-26T01:07:06;4.40;;;2.33;;
41923;SDS011;27613;48.116;11.656;2024-02-26T01:09:32;5.75;;;2.45;;
41923;SDS011;27613;48.116;11.656;2024-02-26T01:11:58;5.60;;;2.50;;
41923;SDS011;27613;48.116;11.656;2024-02-26T01:14:23;5.20;;;2.70;;
41923;SDS011;27613;48.116;11.656;2024-02-26T01:16:49;4.88;;;2.40;;
41923;SDS011;27613;48.116;11.656;2024-02-26T01:19:14;3.00;;;2.00;;
41923;SDS011;27613;48.116;11.656;2024-02-26T01:21:40;3.47;;;2.20;;
41923;SDS011;27613;48.116;11.656;2024-02-26T01:24:06;3.47;;;2.10;;
41923;SDS011;27613;48.116;11.656;2024-02-26T01:26:32;6.03;;;2.70;;
41923;SDS011;27613;48.116;11.656;2024-02-26T01:28:57;4.30;;;2.40;;
41923;SDS011;27613;48.116;11.656;2024-02-26T01:31:23;3.67;;;1.92;;
41923;SDS011;27613;48.116;11.656;2024-02-26T01:33:48;5.20;;;2.30;;
41923;SDS011;27613;48.116;11.656;2024-02-26T01:36:14;3.53;;;2.17;;
41923;SDS011;27613;48.116;11.656;2024-02-26T01:38:40;5.75;;;2.30;;
41923;SDS011;27613;48.116;11.656;2024-02-26T01:41:05;3.80;;;2.33;;
41923;SDS011;27613;48.116;11.656;2024-02-26T01:43:31;4.35;;;2.60;;
41923;SDS011;27613;48.116;11.656;2024-02-26T01:45:57;3.78;;;2.13;;
41923;SDS011;27613;48.116;11.656;2024-02-26T01:48:23;5.13;;;2.15;;
41923;SDS011;27613;48.116;11.656;2024-02-26T01:50:49;4.00;;;2.38;;
41923;SDS011;27613;48.116;11.656;2024-02-26T01:53:14;4.10;;;2.25;;
41923;SDS011;27613;48.116;11.656;2024-02-26T01:55:41;6.30;;;1.98;;
41923;SDS011;27613;48.116;11.656;2024-02-26T01:58:07;3.30;;;2.00;;
41923;SDS011;27613;48.116;11.656;2024-02-26T02:00:33;3.03;;;2.00;;
41923;SDS011;27613;48.116;11.656;2024-02-26T02:02:59;4.55;;;2.28;;
41923;SDS011;27613;48.116;11.656;2024-02-26T02:05:26;3.33;;;2.15;;
41923;SDS011;27613;48.116;11.656;2024-02-26T02:07:52;4.82;;;2.13;;
41923;SDS011;27613;48.116;11.656;2024-02-26T02:10:19;4.38;;;2.40;;
41923;SDS011;27613;48.116;11.656;2024-02-26T02:12:48;2.78;;;1.90;;
41923;SDS011;27613;48.116;11.656;2024-02-26T02:15:14;3.25;;;1.98;;
41923;SDS011;27613;48.116;11.656;2024-02-26T02:17:39;3.03;;;2.20;;
41923;SDS011;27613;48.116;11.656;2024-02-26T02:20:24;3.65;;;2.20;;
41923;SDS011;27613;48.116;11.656;2024-02-26T02:22:50;3.65;;;2.28;;
41923;SDS011;27613;48.116;11.656;2024-02-26T02:25:15;3.13;;;1.90;;
41923;SDS011;27613;48.116;11.656;2024-02-26T02:27:41;2.75;;;1.73;;
41923;SDS011;27613;48.116;11.656;2024-02-26T02:30:08;2.83;;;1.98;;
41923;SDS011;27613;48.116;11.656;2024-02-26T02:32:34;3.17;;;2.00;;
41923;SDS011;27613;48.116;11.656;2024-02-26T02:35:02;4.28;;;2.05;;
41923;SDS011;27613;48.116;11.656;2024-02-26T02:37:28;6.18;;;2.30;;
41923;SDS011;27613;48.116;11.656;2024-02-26T02:39:54;3.25;;;2.08;;
41923;SDS011;27613;48.116;11.656;2024-02-26T02:42:20;3.42;;;1.80;;
41923;SDS011;27613;48.116;11.656;2024-02-26T02:44:45;3.72;;;2.13;;
41923;SDS011;27613;48.116;11.656;2024-02-26T02:47:11;3.40;;;2.10;;
41923;SDS011;27613;48.116;11.656;2024-02-26T02:49:36;3.63;;;2.28;;
41923;SDS011;27613;48.116;11.656;2024-02-26T02:52:02;3.90;;;2.17;;
41923;SDS011;27613;48.116;11.656;2024-02-26T02:54:27;4.22;;;1.90;;
41923;SDS011;27613;48.116;11.656;2024-02-26T02:56:53;5.88;;;2.13;;
41923;SDS011;27613;48.116;11.656;2024-02-26T02:59:18;3.25;;;2.05;;
41923;SDS011;27613;48.116;11.656;2024-02-26T03:01:44;3.83;;;2.08;;
41923;SDS011;27613;48.116;11.656;2024-02-26T03:04:09;2.85;;;1.90;;
41923;SDS011;27613;48.116;11.656;2024-02-26T03:06:35;2.80;;;1.80;;
41923;SDS011;27613;48.116;11.656;2024-02-26T03:09:00;3.92;;;2.13;;
41923;SDS011;27613;48.116;11.656;2024-02-26T03:11:26;3.10;;;2.10;;
41923;SDS011;27613;48.116;11.656;2024-02-26T03:13:51;3.35;;;2.00;;
41923;SDS011;27613;48.116;11.656;2024-02-26T03:16:17;3.22;;;1.80;;
41923;SDS011;27613;48.116;11.656;2024-02-26T03:18:42;3.20;;;1.85;;
41923;SDS011;27613;48.116;11.656;2024-02-26T03:21:08;4.72;;;2.03;;
41923;SDS011;27613;48.116;11.656;2024-02-26T03:23:34;2.90;;;1.80;;
41923;SDS011;27613;48.116;11.656;2024-02-26T03:26:05;3.40;;;1.80;;
41923;SDS011;27613;48.116;11.656;2024-02-26T03:28:31;3.70;;;1.80;;
41923;SDS011;27613;48.116;11.656;2024-02-26T03:30:59;3.15;;;1.70;;
41923;SDS011;27613;48.116;11.656;2024-02-26T03:33:27;3.15;;;1.67;;
41923;SDS011;27613;48.116;11.656;2024-02-26T03:35:52;2.95;;;1.70;;
41923;SDS011;27613;48.116;11.656;2024-02-26T03:38:18;2.78;;;1.65;;
41923;SDS011;27613;48.116;11.656;2024-02-26T03:40:43;2.10;;;1.50;;
41923;SDS011;27613;48.116;11.656;2024-02-26T03:43:09;1.85;;;1.45;;
41923;SDS011;27613;48.116;11.656;2024-02-26T03:45:34;2.80;;;1.42;;
41923;SDS011;27613;48.116;11.656;2024-02-26T03:48:00;1.88;;;1.35;;
41923;SDS011;27613;48.116;11.656;2024-02-26T03:50:28;2.15;;;1.42;;
41923;SDS011;27613;48.116;11.656;2024-02-26T03:52:54;2.63;;;1.50;;
41923;SDS011;27613;48.116;11.656;2024-02-26T03:55:19;2.20;;;1.40;;
41923;SDS011;27613;48.116;11.656;2024-02-26T03:57:49;3.28;;;1.90;;
41923;SDS011;27613;48.116;11.656;2024-02-26T04:00:18;2.17;;;1.55;;
41923;SDS011;27613;48.116;11.656;2024-02-26T04:02:44;2.88;;;1.60;;
41923;SDS011;27613;48.116;11.656;2024-02-26T04:05:11;2.15;;;1.42;;
41923;SDS011;27613;48.116;11.656;2024-02-26T04:07:37;2.13;;;1.40;;
41923;SDS011;27613;48.116;11.656;2024-02-26T04:10:07;3.30;;;1.70;;
41923;SDS011;27613;48.116;11.656;2024-02-26T04:12:34;2.38;;;1.40;;
41923;SDS011;27613;48.116;11.656;2024-02-26T04:15:00;3.15;;;1.85;;
41923;SDS011;27613;48.116;11.656;2024-02-26T04:17:25;2.30;;;1.50;;
41923;SDS011;27613;48.116;11.656;2024-02-26T04:19:51;2.05;;;1.40;;
41923;SDS011;27613;48.116;11.656;2024-02-26T04:22:16;3.00;;;1.50;;
41923;SDS011;27613;48.116;11.656;2024-02-26T04:24:42;2.28;;;1.50;;
41923;SDS011;27613;48.116;11.656;2024-02-26T04:27:07;2.13;;;1.38;;
41923;SDS011;27613;48.116;11.656;2024-02-26T04:29:33;2.35;;;1.58;;
41923;SDS011;27613;48.116;11.656;2024-02-26T04:31:58;1.63;;;1.30;;
41923;SDS011;27613;48.116;11.656;2024-02-26T04:34:24;2.10;;;1.38;;
41923;SDS011;27613;48.116;11.656;2024-02-26T04:36:50;1.83;;;1.38;;
41923;SDS011;27613;48.116;11.656;2024-02-26T04:39:16;2.03;;;1.40;;
41923;SDS011;27613;48.116;11.656;2024-02-26T04:41:41;2.55;;;1.75;;
41923;SDS011;27613;48.116;11.656;2024-02-26T04:44:07;3.30;;;1.60;;
41923;SDS011;27613;48.116;11.656;2024-02-26T04:46:32;2.72;;;1.70;;
41923;SDS011;27613;48.116;11.656;2024-02-26T04:48:58;2.45;;;1.40;;
41923;SDS011;27613;48.116;11.656;2024-02-26T04:51:23;3.58;;;1.58;;
41923;SDS011;27613;48.116;11.656;2024-02-26T04:53:49;2.40;;;1.55;;
41923;SDS011;27613;48.116;11.656;2024-02-26T04:56:14;2.08;;;1.58;;
41923;SDS011;27613;48.116;11.656;2024-02-26T04:58:40;3.33;;;1.48;;
41923;SDS011;27613;48.116;11.656;2024-02-26T05:01:06;1.70;;;1.15;;
41923;SDS011;27613;48.116;11.656;2024-02-26T05:03:31;3.15;;;1.40;;
41923;SDS011;27613;48.116;11.656;2024-02-26T05:05:57;1.95;;;1.45;;
41923;SDS011;27613;48.116;11.656;2024-02-26T05:08:23;5.30;;;1.70;;
41923;SDS011;27613;48.116;11.656;2024-02-26T05:10:49;1.90;;;1.30;;
41923;SDS011;27613;48.116;11.656;2024-02-26T05:13:14;2.15;;;1.50;;
41923;SDS011;27613;48.116;11.656;2024-02-26T05:15:42;1.92;;;1.42;;
41923;SDS011;27613;48.116;11.656;2024-02-26T05:18:08;2.38;;;1.38;;
41923;SDS011;27613;48.116;11.656;2024-02-26T05:20:34;2.30;;;1.33;;
41923;SDS011;27613;48.116;11.656;2024-02-26T05:23:01;2.35;;;1.52;;
41923;SDS011;27613;48.116;11.656;2024-02-26T05:25:26;1.85;;;1.40;;
41923;SDS011;27613;48.116;11.656;2024-02-26T05:27:52;3.10;;;1.80;;
41923;SDS011;27613;48.116;11.656;2024-02-26T05:30:17;2.75;;;1.52;;
41923;SDS011;27613;48.116;11.656;2024-02-26T05:32:43;1.85;;;1.25;;
41923;SDS011;27613;48.116;11.656;2024-02-26T05:35:08;2.10;;;1.40;;
41923;SDS011;27613;48.116;11.656;2024-02-26T05:37:34;2.22;;;1.50;;
41923;SDS011;27613;48.116;11.656;2024-02-26T05:39:59;3.13;;;1.55;;
41923;SDS011;27613;48.116;11.656;2024-02-26T05:42:25;2.53;;;1.70;;
41923;SDS011;27613;48.116;11.656;2024-02-26T05:44:51;2.78;;;1.60;;
41923;SDS011;27613;48.116;11.656;2024-02-26T05:47:16;4.13;;;1.63;;
41923;SDS011;27613;48.116;11.656;2024-02-26T05:49:42;2.58;;;1.52;;
41923;SDS011;27613;48.116;11.656;2024-02-26T05:52:08;2.45;;;1.27;;
41923;SDS011;27613;48.116;11.656;2024-02-26T05:54:34;3.22;;;1.48;;
41923;SDS011;27613;48.116;11.656;2024-02-26T05:57:00;1.95;;;1.33;;
41923;SDS011;27613;48.116;11.656;2024-02-26T05:59:26;2.47;;;1.55;;
41923;SDS011;27613;48.116;11.656;2024-02-26T06:01:52;2.50;;;1.50;;
41923;SDS011;27613;48.116;11.656;2024-02-26T06:04:18;4.80;;;1.75;;
41923;SDS011;27613;48.116;11.656;2024-02-26T06:06:46;3.20;;;1.60;;
41923;SDS011;27613;48.116;11.656;2024-02-26T06:09:11;3.92;;;1.40;;
41923;SDS011;27613;48.116;11.656;2024-02-26T06:11:37;6.45;;;1.80;;
41923;SDS011;27613;48.116;11.656;2024-02-26T06:14:03;1.63;;;1.20;;
41923;SDS011;27613;48.116;11.656;2024-02-26T06:16:28;1.52;;;1.13;;
41923;SDS011;27613;48.116;11.656;2024-02-26T06:18:54;2.75;;;1.33;;
41923;SDS011;27613;48.116;11.656;2024-02-26T06:21:20;1.70;;;1.25;;
41923;SDS011;27613;48.116;11.656;2024-02-26T06:23:45;2.72;;;1.80;;
41923;SDS011;27613;48.116;11.656;2024-02-26T06:26:11;4.85;;;3.30;;
41923;SDS011;27613;48.116;11.656;2024-02-26T06:28:36;7.32;;;4.55;;
41923;SDS011;27613;48.116;11.656;2024-02-26T06:31:05;9.18;;;4.38;;
41923;SDS011;27613;48.116;11.656;2024-02-26T06:33:30;6.43;;;3.50;;
41923;SDS011;27613;48.116;11.656;2024-02-26T06:35:56;5.88;;;3.03;;
41923;SDS011;27613;48.116;11.656;2024-02-26T06:38:21;5.13;;;3.05;;
41923;SDS011;27613;48.116;11.656;2024-02-26T06:40:47;9.45;;;3.08;;
41923;SDS011;27613;48.116;11.656;2024-02-26T06:43:12;8.07;;;3.15;;
41923;SDS011;27613;48.116;11.656;2024-02-26T06:45:38;4.45;;;2.63;;
41923;SDS011;27613;48.116;11.656;2024-02-26T06:48:04;6.18;;;2.45;;
41923;SDS011;27613;48.116;11.656;2024-02-26T06:50:30;7.00;;;2.30;;
41923;SDS011;27613;48.116;11.656;2024-02-26T06:52:55;2.40;;;1.70;;
41923;SDS011;27613;48.116;11.656;2024-02-26T06:55:21;5.82;;;2.10;;
41923;SDS011;27613;48.116;11.656;2024-02-26T06:57:47;5.25;;;2.10;;
41923;SDS011;27613;48.116;11.656;2024-02-26T07:00:12;3.15;;;1.50;;
41923;SDS011;27613;48.116;11.656;2024-02-26T07:02:41;3.80;;;1.55;;
41923;SDS011;27613;48.116;11.656;2024-02-26T07:05:07;5.95;;;1.90;;
41923;SDS011;27613;48.116;11.656;2024-02-26T07:07:33;2.70;;;1.52;;
41923;SDS011;27613;48.116;11.656;2024-02-26T07:09:58;3.97;;;1.92;;
41923;SDS011;27613;48.116;11.656;2024-02-26T07:12:25;5.13;;;2.10;;
41923;SDS011;27613;48.116;11.656;2024-02-26T07:14:50;3.83;;;2.45;;
41923;SDS011;27613;48.116;11.656;2024-02-26T07:17:17;4.63;;;2.20;;
41923;SDS011;27613;48.116;11.656;2024-02-26T07:19:42;4.85;;;2.25;;
41923;SDS011;27613;48.116;11.656;2024-02-26T07:22:09;7.28;;;2.40;;
41923;SDS011;27613;48.116;11.656;2024-02-26T07:24:35;5.22;;;2.33;;
41923;SDS011;27613;48.116;11.656;2024-02-26T07:27:00;3.85;;;2.17;;
41923;SDS011;27613;48.116;11.656;2024-02-26T07:29:26;3.90;;;2.13;;
41923;SDS011;27613;48.116;11.656;2024-02-26T07:31:51;4.65;;;2.13;;
41923;SDS011;27613;48.116;11.656;2024-02-26T07:34:17;5.38;;;1.90;;
41923;SDS011;27613;48.116;11.656;2024-02-26T07:36:43;4.88;;;2.45;;
41923;SDS011;27613;48.116;11.656;2024-02-26T07:39:09;5.22;;;2.22;;
41923;SDS011;27613;48.116;11.656;2024-02-26T07:41:37;4.20;;;2.10;;
41923;SDS011;27613;48.116;11.656;2024-02-26T07:44:04;3.85;;;2.05;;
41923;SDS011;27613;48.116;11.656;2024-02-26T07:46:29;2.22;;;1.52;;
41923;SDS011;27613;48.116;11.656;2024-02-26T07:48:55;3.33;;;1.70;;
41923;SDS011;27613;48.116;11.656;2024-02-26T07:51:20;3.33;;;1.80;;
41923;SDS011;27613;48.116;11.656;2024-02-26T07:53:47;3.78;;;1.92;;
41923;SDS011;27613;48.116;11.656;2024-02-26T07:56:12;2.55;;;1.65;;
41923;SDS011;27613;48.116;11.656;2024-02-26T07:58:38;7.75;;;2.10;;
41923;SDS011;27613;48.116;11.656;2024-02-26T08:01:04;3.13;;;1.80;;
41923;SDS011;27613;48.116;11.656;2024-02-26T08:03:29;3.30;;;1.52;;
41923;SDS011;27613;48.116;11.656;2024-02-26T08:05:55;3.42;;;1.95;;
41923;SDS011;27613;48.116;11.656;2024-02-26T08:08:21;3.55;;;2.05;;
41923;SDS011;27613;48.116;11.656;2024-02-26T08:10:46;3.35;;;1.90;;
41923;SDS011;27613;48.116;11.656;2024-02-26T08:13:12;3.45;;;1.92;;
41923;SDS011;27613;48.116;11.656;2024-02-26T08:15:37;3.55;;;1.80;;
41923;SDS011;27613;48.116;11.656;2024-02-26T08:18:03;4.22;;;2.13;;
41923;SDS011;27613;48.116;11.656;2024-02-26T08:20:29;2.03;;;1.42;;
41923;SDS011;27613;48.116;11.656;2024-02-26T08:22:56;6.82;;;2.42;;
41923;SDS011;27613;48.116;11.656;2024-02-26T08:25:22;5.43;;;1.92;;
41923;SDS011;27613;48.116;11.656;2024-02-26T08:27:48;2.95;;;1.70;;
41923;SDS011;27613;48.116;11.656;2024-02-26T08:30:15;4.50;;;2.20;;
41923;SDS011;27613;48.116;11.656;2024-02-26T08:32:48;3.63;;;1.92;;
41923;SDS011;27613;48.116;11.656;2024-02-26T08:35:13;5.55;;;2.25;;
41923;SDS011;27613;48.116;11.656;2024-02-26T08:37:39;8.90;;;2.53;;
41923;SDS011;27613;48.116;11.656;2024-02-26T08:40:06;4.78;;;2.30;;
41923;SDS011;27613;48.116;11.656;2024-02-26T08:42:32;4.10;;;2.58;;
41923;SDS011;27613;48.116;11.656;2024-02-26T08:44:57;6.63;;;2.33;;
41923;SDS011;27613;48.116;11.656;2024-02-26T08:47:25;4.13;;;2.25;;
41923;SDS011;27613;48.116;11.656;2024-02-26T08:49:51;4.97;;;1.80;;
41923;SDS011;27613;48.116;11.656;2024-02-26T08:52:16;4.75;;;2.40;;
41923;SDS011;27613;48.116;11.656;2024-02-26T08:54:42;4.25;;;2.13;;
41923;SDS011;27613;48.116;11.656;2024-02-26T08:57:07;4.38;;;2.50;;
41923;SDS011;27613;48.116;11.656;2024-02-26T08:59:33;5.97;;;2.72;;
41923;SDS011;27613;48.116;11.656;2024-02-26T09:01:58;4.65;;;2.60;;
41923;SDS011;27613;48.116;11.656;2024-02-26T09:04:24;6.10;;;3.55;;
41923;SDS011;27613;48.116;11.656;2024-02-26T09:06:50;3.95;;;2.45;;
41923;SDS011;27613;48.116;11.656;2024-02-26T09:09:16;4.03;;;2.20;;
41923;SDS011;27613;48.116;11.656;2024-02-26T09:11:41;4.43;;;2.00;;
41923;SDS011;27613;48.116;11.656;2024-02-26T09:14:07;2.97;;;1.85;;
41923;SDS011;27613;48.116;11.656;2024-02-26T09:16:32;5.05;;;1.90;;
41923;SDS011;27613;48.116;11.656;2024-02-26T09:18:58;6.90;;;1.92;;
41923;SDS011;27613;48.116;11.656;2024-02-26T09:21:23;2.85;;;1.65;;
41923;SDS011;27613;48.116;11.656;2024-02-26T09:23:50;2.30;;;1.52;;
41923;SDS011;27613;48.116;11.656;2024-02-26T09:26:16;3.33;;;1.70;;
41923;SDS011;27613;48.116;11.656;2024-02-26T09:28:42;2.00;;;1.42;;
41923;SDS011;27613;48.116;11.656;2024-02-26T09:31:08;2.55;;;1.55;;
41923;SDS011;27613;48.116;11.656;2024-02-26T09:33:33;1.60;;;1.30;;
41923;SDS011;27613;48.116;11.656;2024-02-26T09:35:59;3.90;;;1.83;;
41923;SDS011;27613;48.116;11.656;2024-02-26T09:38:27;2.30;;;1.27;;
41923;SDS011;27613;48.116;11.656;2024-02-26T09:40:53;2.55;;;1.55;;
41923;SDS011;27613;48.116;11.656;2024-02-26T09:43:21;1.88;;;1.30;;
41923;SDS011;27613;48.116;11.656;2024-02-26T09:45:49;2.83;;;1.60;;
41923;SDS011;27613;48.116;11.656;2024-02-26T09:48:16;2.15;;;1.33;;
41923;SDS011;27613;48.116;11.656;2024-02-26T09:50:43;2.38;;;1.52;;
41923;SDS011;27613;48.116;11.656;2024-02-26T09:53:12;3.10;;;1.73;;
41923;SDS011;27613;48.116;11.656;2024-02-26T09:55:39;2.80;;;1.70;;
41923;SDS011;27613;48.116;11.656;2024-02-26T09:58:05;4.18;;;2.13;;
41923;SDS011;27613;48.116;11.656;2024-02-26T10:00:32;4.05;;;1.63;;
41923;SDS011;27613;48.116;11.656;2024-02-26T10:03:02;2.80;;;1.58;;
41923;SDS011;27613;48.116;11.656;2024-02-26T10:05:30;2.33;;;1.48;;
41923;SDS011;27613;48.116;11.656;2024-02-26T10:07:58;4.15;;;2.20;;
41923;SDS011;27613;48.116;11.656;2024-02-26T10:10:26;3.92;;;1.73;;
41923;SDS011;27613;48.116;11.656;2024-02-26T10:12:54;5.90;;;1.85;;
41923;SDS011;27613;48.116;11.656;2024-02-26T10:15:19;4.35;;;2.17;;
41923;SDS011;27613;48.116;11.656;2024-02-26T10:17:45;7.57;;;2.05;;
41923;SDS011;27613;48.116;11.656;2024-02-26T10:20:17;2.60;;;1.52;;
41923;SDS011;27613;48.116;11.656;2024-02-26T10:22:46;1.98;;;1.33;;
41923;SDS011;27613;48.116;11.656;2024-02-26T10:25:12;2.92;;;1.63;;
41923;SDS011;27613;48.116;11.656;2024-02-26T10:27:40;2.72;;;1.60;;
41923;SDS011;27613;48.116;11.656;2024-02-26T10:30:15;2.42;;;1.35;;
41923;SDS011;27613;48.116;11.656;2024-02-26T10:32:45;3.45;;;1.42;;
41923;SDS011;27613;48.116;11.656;2024-02-26T10:35:12;1.85;;;1.17;;
41923;SDS011;27613;48.116;11.656;2024-02-26T10:37:39;2.17;;;1.40;;
41923;SDS011;27613;48.116;11.656;2024-02-26T10:40:06;2.72;;;1.60;;
41923;SDS011;27613;48.116;11.656;2024-02-26T10:42:34;3.55;;;1.80;;
41923;SDS011;27613;48.116;11.656;2024-02-26T10:45:00;1.65;;;0.98;;
41923;SDS011;27613;48.116;11.656;2024-02-26T10:47:27;2.05;;;1.23;;
41923;SDS011;27613;48.116;11.656;2024-02-26T10:49:54;1.40;;;1.05;;
41923;SDS011;27613;48.116;11.656;2024-02-26T10:52:21;2.13;;;1.08;;
41923;SDS011;27613;48.116;11.656;2024-02-26T10:54:50;1.48;;;1.02;;
41923;SDS011;27613;48.116;11.656;2024-02-26T10:57:21;2.13;;;1.42;;
41923;SDS011;27613;48.116;11.656;2024-02-26T10:59:49;2.13;;;1.23;;
41923;SDS011;27613;48.116;11.656;2024-02-26T11:02:16;2.78;;;1.30;;
41923;SDS011;27613;48.116;11.656;2024-02-26T11:04:43;3.63;;;1.65;;
41923;SDS011;27613;48.116;11.656;2024-02-26T11:07:10;2.28;;;1.60;;
41923;SDS011;27613;48.116;11.656;2024-02-26T11:09:36;2.75;;;1.52;;
41923;SDS011;27613;48.116;11.656;2024-02-26T11:12:08;3.40;;;1.92;;
41923;SDS011;27613;48.116;11.656;2024-02-26T11:14:36;3.08;;;1.52;;
41923;SDS011;27613;48.116;11.656;2024-02-26T11:17:03;2.03;;;1.30;;
41923;SDS011;27613;48.116;11.656;2024-02-26T11:19:29;1.27;;;0.90;;
41923;SDS011;27613;48.116;11.656;2024-02-26T11:21:57;0.80;;;0.80;;
41923;SDS011;27613;48.116;11.656;2024-02-26T11:24:26;0.82;;;0.70;;
41923;SDS011;27613;48.116;11.656;2024-02-26T11:26:53;1.40;;;0.95;;
41923;SDS011;27613;48.116;11.656;2024-02-26T11:29:24;1.38;;;0.80;;
41923;SDS011;27613;48.116;11.656;2024-02-26T11:31:53;2.15;;;0.93;;
41923;SDS011;27613;48.116;11.656;2024-02-26T11:34:18;1.08;;;0.70;;
41923;SDS011;27613;48.116;11.656;2024-02-26T11:36:45;1.50;;;0.80;;
41923;SDS011;27613;48.116;11.656;2024-02-26T11:39:11;1.92;;;0.95;;
41923;SDS011;27613;48.116;11.656;2024-02-26T11:41:40;6.25;;;0.80;;
41923;SDS011;27613;48.116;11.656;2024-02-26T11:44:05;1.98;;;1.02;;
41923;SDS011;27613;48.116;11.656;2024-02-26T11:46:32;1.00;;;0.80;;
41923;SDS011;27613;48.116;11.656;2024-02-26T11:49:04;0.80;;;0.70;;
41923;SDS011;27613;48.116;11.656;2024-02-26T11:51:52;3.20;;;1.08;;
41923;SDS011;27613;48.116;11.656;2024-02-26T11:57:38;1.25;;;0.80;;
41923;SDS011;27613;48.116;11.656;2024-02-26T12:02:47;1.58;;;0.85;;
41923;SDS011;27613;48.116;11.656;2024-02-26T12:05:20;0.93;;;0.70;;
41923;SDS011;27613;48.116;11.656;2024-02-26T12:07:55;0.80;;;0.80;;
41923;SDS011;27613;48.116;11.656;2024-02-26T12:10:32;1.10;;;0.77;;
41923;SDS011;27613;48.116;11.656;2024-02-26T12:13:02;1.05;;;0.82;;
41923;SDS011;27613;48.116;11.656;2024-02-26T12:15:32;1.52;;;0.85;;
41923;SDS011;27613;48.116;11.656;2024-02-26T12:18:01;1.25;;;0.70;;
41923;SDS011;27613;48.116;11.656;2024-02-26T12:20:28;1.08;;;0.70;;
41923;SDS011;27613;48.116;11.656;2024-02-26T12:22:54;1.02;;;0.80;;
41923;SDS011;27613;48.116;11.656;2024-02-26T12:25:24;4.20;;;0.80;;
41923;SDS011;27613;48.116;11.656;2024-02-26T12:27:52;3.35;;;0.75;;
41923;SDS011;27613;48.116;11.656;2024-02-26T12:30:21;0.73;;;0.70;;
41923;SDS011;27613;48.116;11.656;2024-02-26T12:32:47;0.65;;;0.65;;
41923;SDS011;27613;48.116;11.656;2024-02-26T12:35:15;1.80;;;0.90;;
41923;SDS011;27613;48.116;11.656;2024-02-26T12:37:41;1.83;;;0.90;;
41923;SDS011;27613;48.116;11.656;2024-02-26T12:40:08;0.82;;;0.70;;
41923;SDS011;27613;48.116;11.656;2024-02-26T12:42:37;0.63;;;0.63;;
41923;SDS011;27613;48.116;11.656;2024-02-26T12:45:10;0.85;;;0.63;;
41923;SDS011;27613;48.116;11.656;2024-02-26T12:47:40;2.92;;;0.80;;
41923;SDS011;27613;48.116;11.656;2024-02-26T12:50:06;0.63;;;0.50;;
41923;SDS011;27613;48.116;11.656;2024-02-26T12:52:33;2.22;;;0.70;;
41923;SDS011;27613;48.116;11.656;2024-02-26T12:55:01;2.45;;;0.80;;
41923;SDS011;27613;48.116;11.656;2024-02-26T12:57:28;1.17;;;0.68;;
41923;SDS011;27613;48.116;11.656;2024-02-26T12:59:56;0.98;;;0.70;;
41923;SDS011;27613;48.116;11.656;2024-02-26T13:02:22;2.10;;;1.10;;
41923;SDS011;27613;48.116;11.656;2024-02-26T13:04:48;2.25;;;1.52;;
41923;SDS011;27613;48.116;11.656;2024-02-26T13:07:14;2.05;;;1.50;;
41923;SDS011;27613;48.116;11.656;2024-02-26T13:09:39;1.73;;;1.40;;
41923;SDS011;27613;48.116;11.656;2024-02-26T13:12:05;3.30;;;1.77;;
41923;SDS011;27613;48.116;11.656;2024-02-26T13:14:32;2.38;;;1.52;;
41923;SDS011;27613;48.116;11.656;2024-02-26T13:16:59;2.28;;;1.50;;
41923;SDS011;27613;48.116;11.656;2024-02-26T13:19:25;3.58;;;2.00;;
41923;SDS011;27613;48.116;11.656;2024-02-26T13:21:52;2.25;;;1.40;;
41923;SDS011;27613;48.116;11.656;2024-02-26T13:24:19;2.63;;;1.60;;
41923;SDS011;27613;48.116;11.656;2024-02-26T13:26:45;3.03;;;1.70;;
41923;SDS011;27613;48.116;11.656;2024-02-26T13:29:20;7.13;;;1.77;;
41923;SDS011;27613;48.116;11.656;2024-02-26T13:31:46;2.92;;;1.67;;
41923;SDS011;27613;48.116;11.656;2024-02-26T13:34:11;3.10;;;1.67;;
41923;SDS011;27613;48.116;11.656;2024-02-26T13:36:51;2.45;;;1.45;;
41923;SDS011;27613;48.116;11.656;2024-02-26T13:39:27;2.72;;;1.35;;
41923;SDS011;27613;48.116;11.656;2024-02-26T13:41:53;2.40;;;1.50;;
41923;SDS011;27613;48.116;11.656;2024-02-26T13:44:19;2.42;;;1.42;;
41923;SDS011;27613;48.116;11.656;2024-02-26T13:46:45;4.22;;;1.38;;
41923;SDS011;27613;48.116;11.656;2024-02-26T13:49:12;2.65;;;1.23;;
41923;SDS011;27613;48.116;11.656;2024-02-26T13:51:38;2.47;;;1.35;;
41923;SDS011;27613;48.116;11.656;2024-02-26T13:54:04;1.65;;;1.30;;
41923;SDS011;27613;48.116;11.656;2024-02-26T13:56:30;1.95;;;1.40;;
41923;SDS011;27613;48.116;11.656;2024-02-26T13:58:56;2.17;;;1.50;;
41923;SDS011;27613;48.116;11.656;2024-02-26T14:01:23;2.63;;;1.60;;
41923;SDS011;27613;48.116;11.656;2024-02-26T14:03:49;2.92;;;1.67;;
41923;SDS011;27613;48.116;11.656;2024-02-26T14:06:14;2.25;;;1.42;;
41923;SDS011;27613;48.116;11.656;2024-02-26T14:08:40;3.38;;;1.83;;
41923;SDS011;27613;48.116;11.656;2024-02-26T14:11:06;2.50;;;1.63;;
41923;SDS011;27613;48.116;11.656;2024-02-26T14:13:31;2.45;;;1.73;;
41923;SDS011;27613;48.116;11.656;2024-02-26T14:15:57;3.83;;;2.13;;
41923;SDS011;27613;48.116;11.656;2024-02-26T14:18:23;5.65;;;1.75;;
41923;SDS011;27613;48.116;11.656;2024-02-26T14:20:49;3.85;;;2.30;;
41923;SDS011;27613;48.116;11.656;2024-02-26T14:23:14;3.22;;;1.83;;
41923;SDS011;27613;48.116;11.656;2024-02-26T14:25:40;3.60;;;1.92;;
41923;SDS011;27613;48.116;11.656;2024-02-26T14:28:05;3.30;;;1.80;;
41923;SDS011;27613;48.116;11.656;2024-02-26T14:30:31;3.38;;;1.90;;
41923;SDS011;27613;48.116;11.656;2024-02-26T14:32:57;4.70;;;1.90;;
41923;SDS011;27613;48.116;11.656;2024-02-26T14:35:23;3.80;;;2.00;;